createdAt,value
2022-08-20T00:06:17.372Z,20.60
2022-08-20T00:09:04.814Z,20.50
2022-08-20T00:11:52.222Z,20.60
2022-08-20T00:14:40.585Z,20.60
2022-08-20T00:17:28.594Z,20.60
2022-08-20T00:20:16.027Z,20.60
2022-08-20T00:23:09.832Z,20.60
2022-08-20T00:25:57.929Z,20.60
2022-08-20T00:28:45.524Z,20.60
2022-08-20T00:31:33.138Z,20.60
2022-08-20T00:34:20.583Z,20.60
2022-08-20T00:37:08.370Z,20.50
2022-08-20T00:39:57.071Z,20.50
2022-08-20T00:42:46.890Z,20.60
2022-08-20T00:45:36.423Z,20.60
2022-08-20T00:48:24.382Z,20.50
2022-08-20T00:51:17.674Z,20.60
2022-08-20T00:54:10.823Z,20.50
2022-08-20T00:57:03.750Z,20.50
2022-08-20T00:59:52.759Z,20.40
2022-08-20T01:02:40.535Z,20.40
2022-08-20T01:05:29.565Z,20.30
2022-08-20T01:18:53.194Z,20.20
2022-08-20T01:21:40.346Z,20.20
2022-08-20T01:24:34.701Z,20.20
2022-08-20T01:27:24.665Z,20.10
2022-08-20T01:30:12.808Z,20.10
2022-08-20T01:32:59.845Z,20.10
2022-08-20T01:35:47.389Z,20.10
2022-08-20T01:38:35.838Z,20.10
2022-08-20T01:41:56.021Z,20.20
2022-08-20T01:44:47.763Z,20.10
2022-08-20T01:47:36.454Z,20.20
2022-08-20T01:50:29.651Z,20.20
2022-08-20T01:53:21.388Z,20.10
2022-08-20T01:56:22.541Z,20.10
2022-08-20T01:59:09.821Z,20.10
2022-08-20T02:01:59.534Z,20.10
2022-08-20T02:04:46.715Z,20.10
2022-08-20T02:07:34.756Z,20.10
2022-08-20T02:10:23.625Z,20.10
2022-08-20T02:13:11.034Z,20.00
2022-08-20T02:15:58.455Z,20.00
2022-08-20T02:18:47.138Z,19.90
2022-08-20T02:21:35.032Z,19.80
2022-08-20T02:24:23.055Z,19.70
2022-08-20T02:27:10.399Z,19.60
2022-08-20T02:29:57.542Z,19.50
2022-08-20T02:32:46.222Z,19.60
2022-08-20T02:35:35.319Z,19.50
2022-08-20T02:38:22.355Z,19.50
2022-08-20T02:41:10.387Z,19.50
2022-08-20T02:43:58.399Z,19.50
2022-08-20T02:46:45.507Z,19.50
2022-08-20T02:49:32.561Z,19.40
2022-08-20T02:52:20.969Z,19.50
2022-08-20T02:55:09.325Z,19.50
2022-08-20T02:58:11.442Z,19.40
2022-08-20T03:00:58.868Z,19.50
2022-08-20T03:09:06.274Z,19.60
2022-08-20T03:11:54.317Z,19.50
2022-08-20T03:14:41.655Z,19.60
2022-08-20T03:17:29.065Z,19.50
2022-08-20T03:20:16.583Z,19.50
2022-08-20T03:23:03.810Z,19.50
2022-08-20T03:25:52.236Z,19.50
2022-08-20T03:28:40.074Z,19.50
2022-08-20T03:31:27.415Z,19.50
2022-08-20T03:34:14.943Z,19.50
2022-08-20T03:37:02.859Z,19.60
2022-08-20T03:39:50.079Z,19.60
2022-08-20T03:43:28.032Z,19.60
2022-08-20T03:46:22.879Z,19.70
2022-08-20T03:49:10.630Z,19.60
2022-08-20T03:57:16.291Z,19.60
2022-08-20T04:00:04.762Z,19.60
2022-08-20T04:03:00.823Z,19.60
2022-08-20T04:05:48.114Z,19.60
2022-08-20T04:08:35.471Z,19.60
2022-08-20T04:11:23.687Z,19.60
2022-08-20T04:14:16.647Z,19.60
2022-08-20T04:17:08.066Z,19.60
2022-08-20T04:19:56.689Z,19.60
2022-08-20T04:22:43.842Z,19.60
2022-08-20T04:25:46.534Z,19.60
2022-08-20T04:28:34.315Z,19.60
2022-08-20T04:31:24.950Z,19.60
2022-08-20T04:34:12.739Z,19.60
2022-08-20T04:37:01.615Z,19.60
2022-08-20T04:40:09.622Z,19.60
2022-08-20T04:42:58.175Z,19.60
2022-08-20T04:45:47.120Z,19.70
2022-08-20T04:48:34.499Z,19.60
2022-08-20T04:51:22.921Z,19.60
2022-08-20T04:54:14.351Z,19.70
2022-08-20T04:57:02.173Z,19.70
2022-08-20T04:59:49.438Z,19.70
2022-08-20T05:02:37.941Z,19.70
2022-08-20T05:05:25.043Z,19.70
2022-08-20T05:13:27.486Z,19.70
2022-08-20T05:16:17.634Z,19.70
2022-08-20T05:19:05.118Z,19.70
2022-08-20T05:21:53.595Z,19.70
2022-08-20T05:24:41.910Z,19.70
2022-08-20T05:27:29.879Z,19.70
2022-08-20T05:30:19.479Z,19.70
2022-08-20T05:33:07.930Z,19.70
2022-08-20T05:35:55.617Z,19.80
2022-08-20T05:38:44.095Z,19.80
2022-08-20T05:41:37.724Z,19.80
2022-08-20T05:44:25.222Z,19.80
2022-08-20T05:47:14.982Z,19.90
2022-08-20T05:50:05.321Z,20.00
2022-08-20T05:52:52.489Z,20.00
2022-08-20T05:55:40.364Z,20.00
2022-08-20T05:58:52.619Z,19.90
2022-08-20T06:01:41.201Z,19.90
2022-08-20T06:04:31.851Z,20.00
2022-08-20T06:07:19.519Z,19.90
2022-08-20T06:10:08.964Z,19.90
2022-08-20T06:12:56.299Z,19.80
2022-08-20T06:15:43.599Z,19.80
2022-08-20T06:18:31.222Z,19.80
2022-08-20T06:21:19.618Z,19.80
2022-08-20T06:24:07.729Z,19.70
2022-08-20T06:26:57.308Z,19.80
2022-08-20T06:29:44.695Z,19.70
2022-08-20T06:37:50.160Z,19.70
2022-08-20T06:40:37.582Z,19.70
2022-08-20T06:43:24.762Z,19.70
2022-08-20T06:47:03.815Z,19.80
2022-08-20T06:54:49.690Z,19.70
2022-08-20T06:57:37.228Z,19.80
2022-08-20T07:00:24.657Z,19.80
2022-08-20T07:03:13.808Z,19.80
2022-08-20T07:06:01.210Z,19.90
2022-08-20T07:08:48.395Z,19.90
2022-08-20T07:11:37.128Z,19.90
2022-08-20T07:14:24.329Z,19.90
2022-08-20T07:17:13.078Z,20.00
2022-08-20T07:20:00.305Z,19.90
2022-08-20T07:22:48.243Z,19.90
2022-08-20T07:25:35.743Z,19.90
2022-08-20T07:28:28.560Z,19.90
2022-08-20T07:31:34.875Z,20.10
2022-08-20T07:34:22.135Z,20.00
2022-08-20T07:37:10.614Z,20.00
2022-08-20T07:39:57.884Z,20.00
2022-08-20T07:42:45.261Z,20.00
2022-08-20T07:45:34.126Z,19.90
2022-08-20T07:48:31.096Z,19.90
2022-08-20T07:51:22.157Z,19.90
2022-08-20T07:54:09.101Z,20.00
2022-08-20T07:56:56.621Z,20.00
2022-08-20T07:59:44.039Z,20.00
2022-08-20T08:02:34.079Z,20.00
2022-08-20T08:05:21.635Z,20.00
2022-08-20T08:08:13.082Z,20.00
2022-08-20T08:11:03.629Z,20.00
2022-08-20T08:13:51.700Z,20.10
2022-08-20T08:16:39.876Z,20.10
2022-08-20T08:19:34.221Z,20.20
2022-08-20T08:22:21.576Z,20.20
2022-08-20T08:25:09.183Z,20.20
2022-08-20T08:27:56.391Z,20.30
2022-08-20T08:30:44.965Z,20.30
2022-08-20T08:33:33.431Z,20.30
2022-08-20T08:36:21.812Z,20.20
2022-08-20T08:39:09.060Z,20.20
2022-08-20T08:41:57.274Z,20.20
2022-08-20T08:44:44.478Z,20.20
2022-08-20T08:47:34.632Z,20.40
2022-08-20T08:50:53.309Z,20.30
2022-08-20T08:53:47.109Z,20.40
2022-08-20T08:56:35.326Z,20.50
2022-08-20T08:59:24.454Z,20.50
2022-08-20T09:02:21.373Z,20.60
2022-08-20T09:05:15.693Z,20.60
2022-08-20T09:08:06.689Z,20.60
2022-08-20T09:10:55.777Z,20.60
2022-08-20T09:13:44.365Z,20.60
2022-08-20T09:16:52.038Z,20.80
2022-08-20T09:19:38.293Z,20.70
2022-08-20T09:22:26.491Z,20.70
2022-08-20T09:25:14.057Z,20.80
2022-08-20T09:28:03.001Z,20.80
2022-08-20T09:30:51.322Z,20.80
2022-08-20T09:33:38.501Z,20.60
2022-08-20T09:36:32.590Z,20.70
2022-08-20T09:39:20.099Z,20.70
2022-08-20T09:42:09.691Z,20.80
2022-08-20T09:44:59.506Z,20.60
2022-08-20T09:47:56.255Z,20.60
2022-08-20T09:50:48.578Z,20.70
2022-08-20T09:53:36.097Z,20.80
2022-08-20T09:56:23.304Z,21.00
2022-08-20T09:59:10.456Z,21.10
2022-08-20T10:01:58.994Z,21.10
2022-08-20T10:04:46.230Z,21.20
2022-08-20T10:07:35.573Z,21.20
2022-08-20T10:10:22.985Z,21.10
2022-08-20T10:13:12.744Z,21.20
2022-08-20T10:16:02.662Z,21.10
2022-08-20T10:18:51.234Z,21.30
2022-08-20T10:21:39.394Z,21.30
2022-08-20T10:24:27.002Z,21.20
2022-08-20T10:27:14.243Z,21.30
2022-08-20T10:30:01.753Z,21.30
2022-08-20T10:32:49.473Z,21.40
2022-08-20T10:35:37.878Z,21.30
2022-08-20T10:38:24.742Z,21.30
2022-08-20T10:41:12.397Z,21.40
2022-08-20T10:43:59.523Z,21.40
2022-08-20T10:46:46.895Z,21.50
2022-08-20T10:49:35.139Z,21.60
2022-08-20T10:52:24.304Z,21.80
2022-08-20T10:55:11.720Z,22.00
2022-08-20T10:57:58.848Z,21.90
2022-08-20T11:00:47.198Z,21.90
2022-08-20T11:03:34.797Z,22.10
2022-08-20T11:06:22.231Z,22.10
2022-08-20T11:09:10.943Z,22.00
2022-08-20T11:11:58.397Z,21.90
2022-08-20T11:14:45.927Z,21.90
2022-08-20T11:17:37.135Z,21.90
2022-08-20T11:20:26.228Z,21.90
2022-08-20T11:23:13.620Z,21.90
2022-08-20T11:26:02.239Z,22.00
2022-08-20T11:28:50.127Z,21.90
2022-08-20T11:31:37.180Z,21.90
2022-08-20T11:34:24.575Z,21.90
2022-08-20T11:37:13.064Z,21.80
2022-08-20T11:40:00.385Z,21.80
2022-08-20T11:43:13.184Z,21.70
2022-08-20T11:45:57.415Z,21.80
2022-08-20T11:48:44.730Z,21.80
2022-08-20T11:51:31.924Z,21.80
2022-08-20T11:55:51.192Z,21.80
2022-08-20T12:03:44.078Z,21.80
2022-08-20T12:06:31.371Z,21.80
2022-08-20T12:09:23.070Z,21.70
2022-08-20T12:12:13.924Z,21.70
2022-08-20T12:15:01.174Z,21.70
2022-08-20T12:17:48.989Z,21.80
2022-08-20T12:20:38.405Z,21.70
2022-08-20T12:23:25.459Z,21.80
2022-08-20T12:26:12.838Z,21.80
2022-08-20T12:29:00.411Z,21.80
2022-08-20T12:31:47.775Z,21.80
2022-08-20T12:34:35.774Z,21.80
2022-08-20T12:37:26.383Z,21.70
2022-08-20T12:40:15.773Z,21.80
2022-08-20T12:43:03.969Z,22.00
2022-08-20T12:45:51.306Z,22.00
2022-08-20T12:48:38.573Z,22.00
2022-08-20T12:51:26.037Z,22.00
2022-08-20T12:54:14.743Z,21.90
2022-08-20T12:57:02.672Z,21.90
2022-08-20T12:59:55.231Z,22.00
2022-08-20T13:02:43.121Z,21.90
2022-08-20T13:05:31.301Z,21.90
2022-08-20T13:08:19.282Z,21.90
2022-08-20T13:11:07.836Z,21.80
2022-08-20T13:13:55.223Z,21.90
2022-08-20T13:16:42.928Z,21.80
2022-08-20T13:19:31.209Z,21.70
2022-08-20T13:22:18.190Z,21.60
2022-08-20T13:25:05.836Z,21.50
2022-08-20T13:27:59.140Z,21.40
2022-08-20T13:30:46.358Z,21.30
2022-08-20T13:33:33.950Z,21.30
2022-08-20T13:36:21.271Z,21.30
2022-08-20T13:39:09.067Z,21.30
2022-08-20T13:41:56.488Z,21.20
2022-08-20T13:44:45.218Z,21.20
2022-08-20T13:47:34.983Z,21.10
2022-08-20T13:50:24.902Z,21.00
2022-08-20T13:53:12.001Z,20.90
2022-08-20T13:55:59.430Z,20.90
2022-08-20T13:58:47.040Z,21.00
2022-08-20T14:01:35.693Z,20.80
2022-08-20T14:04:22.945Z,20.80
2022-08-20T14:07:12.607Z,20.80
2022-08-20T14:10:01.490Z,20.80
2022-08-20T14:12:48.434Z,20.80
2022-08-20T14:15:36.788Z,20.80
2022-08-20T14:18:25.940Z,20.80
2022-08-20T14:21:13.285Z,20.60
2022-08-20T14:24:01.905Z,20.60
2022-08-20T14:26:48.987Z,20.70
2022-08-20T14:29:37.522Z,20.70
2022-08-20T14:32:24.901Z,20.80
2022-08-20T14:35:14.536Z,20.80
2022-08-20T14:38:01.850Z,20.80
2022-08-20T14:40:52.743Z,20.80
2022-08-20T14:43:40.107Z,20.90
2022-08-20T14:46:27.466Z,21.00
2022-08-20T14:49:15.717Z,21.10
2022-08-20T14:52:04.738Z,21.10
2022-08-20T14:54:52.378Z,21.20
2022-08-20T14:57:40.735Z,21.20
2022-08-20T15:00:31.076Z,21.10
2022-08-20T15:03:18.423Z,21.00
2022-08-20T15:06:10.881Z,21.10
2022-08-20T15:09:10.599Z,21.00
2022-08-20T15:11:58.152Z,21.00
2022-08-20T15:14:45.615Z,21.00
2022-08-20T15:17:35.959Z,20.90
2022-08-20T15:20:24.946Z,21.00
2022-08-20T15:23:12.362Z,21.00
2022-08-20T15:26:00.964Z,21.00
2022-08-20T15:28:48.362Z,20.90
2022-08-20T15:31:36.068Z,20.80
2022-08-20T15:34:23.710Z,20.90
2022-08-20T15:37:12.803Z,20.90
2022-08-20T15:40:05.796Z,20.90
2022-08-20T15:42:54.527Z,21.00
2022-08-20T15:45:41.818Z,21.00
2022-08-20T15:48:34.330Z,21.10
2022-08-20T15:51:31.282Z,21.00
2022-08-20T15:54:20.564Z,21.10
2022-08-20T15:57:12.806Z,21.10
2022-08-20T16:00:11.514Z,21.10
2022-08-20T16:03:31.038Z,21.10
2022-08-20T16:06:23.782Z,21.10
2022-08-20T16:09:39.140Z,21.00
2022-08-20T16:17:49.218Z,21.00
2022-08-20T16:20:41.417Z,21.10
2022-08-20T16:23:32.616Z,21.10
2022-08-20T16:26:32.817Z,21.00
2022-08-20T16:29:25.685Z,21.00
2022-08-20T16:32:19.821Z,20.90
2022-08-20T16:35:28.990Z,20.90
2022-08-20T16:38:22.677Z,20.90
2022-08-20T16:41:14.703Z,21.00
2022-08-20T16:44:05.827Z,20.90
2022-08-20T16:46:58.901Z,20.80
2022-08-20T16:49:50.260Z,20.80
2022-08-20T16:52:42.488Z,20.80
2022-08-20T16:55:29.930Z,20.80
2022-08-20T16:58:17.341Z,20.90
2022-08-20T17:01:09.391Z,20.90
2022-08-20T17:03:56.730Z,20.90
2022-08-20T17:06:47.713Z,20.80
2022-08-20T17:09:41.036Z,20.80
2022-08-20T17:17:45.375Z,20.90
2022-08-20T17:20:43.710Z,20.90
2022-08-20T17:23:44.504Z,20.90
2022-08-20T17:26:46.359Z,20.90
2022-08-20T17:29:38.309Z,20.90
2022-08-20T17:32:28.003Z,21.00
2022-08-20T17:35:23.374Z,21.00
2022-08-20T17:38:27.590Z,21.00
2022-08-20T17:41:21.682Z,21.00
2022-08-20T17:44:22.151Z,21.00
2022-08-20T17:47:14.907Z,20.90
2022-08-20T17:50:10.848Z,20.90
2022-08-20T17:53:02.361Z,21.00
2022-08-20T17:55:52.171Z,21.00
2022-08-20T17:58:55.003Z,21.00
2022-08-20T18:01:43.915Z,21.00
2022-08-20T18:04:32.221Z,20.90
2022-08-20T18:07:31.206Z,20.80
2022-08-20T18:10:24.215Z,20.80
2022-08-20T18:13:18.776Z,20.80
2022-08-20T18:16:10.860Z,20.80
2022-08-20T18:19:15.257Z,20.80
2022-08-20T18:22:11.246Z,20.80
2022-08-20T18:25:04.753Z,20.60
2022-08-20T18:27:56.194Z,20.60
2022-08-20T18:30:52.599Z,20.50
2022-08-20T18:33:43.483Z,20.40
2022-08-20T18:36:32.441Z,20.30
2022-08-20T18:39:27.543Z,20.30
2022-08-20T18:42:26.072Z,20.20
2022-08-20T18:45:13.656Z,20.10
2022-08-20T18:48:02.968Z,20.10
2022-08-20T18:50:55.049Z,20.10
2022-08-20T18:53:51.956Z,20.10
2022-08-20T18:56:43.253Z,20.20
2022-08-20T18:59:33.226Z,20.20
2022-08-20T19:02:23.986Z,20.20
2022-08-20T19:05:12.925Z,20.20
2022-08-20T19:08:03.393Z,20.30
2022-08-20T19:10:58.079Z,20.20
2022-08-20T19:14:04.640Z,20.10
2022-08-20T19:16:58.955Z,20.10
2022-08-20T19:19:46.401Z,20.10
2022-08-20T19:22:35.170Z,20.10
2022-08-20T19:25:25.218Z,20.10
2022-08-20T19:28:22.439Z,20.20
2022-08-20T19:31:11.406Z,20.20
2022-08-20T19:34:19.064Z,20.30
2022-08-20T19:37:35.274Z,20.20
2022-08-20T19:40:28.354Z,20.20
2022-08-20T19:43:19.860Z,20.10
2022-08-20T19:46:07.600Z,20.10
2022-08-20T19:49:19.170Z,20.10
2022-08-20T19:52:17.408Z,20.00
2022-08-20T19:55:13.881Z,19.80
2022-08-20T19:58:05.866Z,19.70
2022-08-20T20:00:56.182Z,19.80
2022-08-20T20:03:54.369Z,19.80
2022-08-20T20:06:46.761Z,19.90
2022-08-20T20:09:34.118Z,19.90
2022-08-20T20:12:23.074Z,19.90
2022-08-20T20:15:10.930Z,19.90
2022-08-20T20:18:01.045Z,20.00
2022-08-20T20:20:57.261Z,20.00
2022-08-20T20:23:53.950Z,20.00
2022-08-20T20:26:42.446Z,20.00
2022-08-20T20:29:35.965Z,20.00
2022-08-20T20:32:25.791Z,19.90
2022-08-20T20:35:26.590Z,20.00
2022-08-20T20:38:25.097Z,19.90
2022-08-20T20:41:22.203Z,19.90
2022-08-20T20:44:20.594Z,19.90
2022-08-20T20:47:10.159Z,19.90
2022-08-20T20:50:00.336Z,19.90
2022-08-20T20:52:54.384Z,19.90
2022-08-20T20:55:42.694Z,19.90
2022-08-20T20:58:30.381Z,19.90
2022-08-20T21:01:18.440Z,20.00
2022-08-20T21:04:26.293Z,20.00
2022-08-20T21:07:16.884Z,19.90
2022-08-20T21:10:06.209Z,19.90
2022-08-20T21:12:53.779Z,19.90
2022-08-20T21:15:41.325Z,19.80
2022-08-20T21:18:28.869Z,19.80
2022-08-20T21:21:16.949Z,19.70
2022-08-20T21:24:05.046Z,19.60
2022-08-20T21:26:53.994Z,19.70
2022-08-20T21:29:41.623Z,19.80
2022-08-20T21:32:28.817Z,19.80
2022-08-20T21:35:17.492Z,19.80
2022-08-20T21:38:04.831Z,19.80
2022-08-20T21:40:52.443Z,19.80
2022-08-20T21:43:41.167Z,19.70
2022-08-20T21:46:28.693Z,19.70
2022-08-20T21:49:16.323Z,19.70
2022-08-20T21:52:03.790Z,19.60
2022-08-20T21:54:50.978Z,19.70
2022-08-20T21:57:42.224Z,19.70
2022-08-20T22:00:50.776Z,19.60
2022-08-20T22:03:40.986Z,19.60
2022-08-20T22:06:28.177Z,19.60
2022-08-20T22:09:16.171Z,19.60
2022-08-20T22:12:04.615Z,19.50
2022-08-20T22:14:52.069Z,19.50
2022-08-20T22:17:40.547Z,19.50
2022-08-20T22:20:28.831Z,19.50
2022-08-20T22:23:16.514Z,19.50
2022-08-20T22:26:03.548Z,19.40
2022-08-20T22:28:51.416Z,19.40
2022-08-20T22:31:41.453Z,19.40
2022-08-20T22:34:33.658Z,19.40
2022-08-20T22:37:21.018Z,19.40
2022-08-20T22:40:10.183Z,19.40
2022-08-20T22:42:57.769Z,19.40
2022-08-20T22:45:46.447Z,19.40
2022-08-20T22:48:33.720Z,19.40
2022-08-20T22:51:27.989Z,19.50
2022-08-20T22:54:20.466Z,19.50
2022-08-20T22:57:08.799Z,19.50
2022-08-20T22:59:56.061Z,19.40
2022-08-20T23:02:44.808Z,19.40
2022-08-20T23:05:34.647Z,19.40
2022-08-20T23:08:23.513Z,19.40
2022-08-20T23:11:14.499Z,19.40
2022-08-20T23:14:01.883Z,19.40
2022-08-20T23:16:54.656Z,19.40
2022-08-20T23:19:46.170Z,19.40
2022-08-20T23:22:33.127Z,19.40
2022-08-20T23:25:21.673Z,19.40
2022-08-20T23:28:08.815Z,19.30
2022-08-20T23:30:56.311Z,19.40
2022-08-20T23:33:45.001Z,19.40
2022-08-20T23:36:32.545Z,19.30
2022-08-20T23:39:20.205Z,19.40
2022-08-20T23:42:10.656Z,19.30
2022-08-20T23:44:58.135Z,19.30
2022-08-20T23:47:46.088Z,19.40
2022-08-20T23:50:33.399Z,19.30
2022-08-20T23:53:20.488Z,19.20
2022-08-20T23:56:08.118Z,19.30
2022-08-20T23:58:57.143Z,19.30
